createdAt,value
2019-03-31T00:00:01.467Z,9.33
2019-03-31T00:02:51.794Z,9.00
2019-03-31T00:05:37.306Z,8.60
2019-03-31T00:08:26.706Z,8.73
2019-03-31T00:11:16.985Z,8.43
2019-03-31T00:14:00.203Z,8.27
2019-03-31T00:16:52.435Z,8.87
2019-03-31T00:19:35.602Z,9.03
2019-03-31T00:22:26.795Z,9.67
2019-03-31T00:25:17.281Z,9.03
2019-03-31T00:28:07.739Z,8.73
2019-03-31T00:30:57.992Z,9.13
2019-03-31T00:33:48.260Z,8.33
2019-03-31T00:36:30.629Z,9.67
2019-03-31T00:39:20.877Z,8.53
2019-03-31T00:42:03.643Z,8.83
2019-03-31T00:44:53.989Z,8.47
2019-03-31T00:47:36.237Z,8.20
2019-03-31T00:50:45.395Z,9.03
2019-03-31T00:53:35.720Z,8.50
2019-03-31T00:56:26.366Z,8.40
2019-03-31T00:59:16.756Z,8.60
2019-03-31T01:04:54.587Z,8.60
2019-03-31T01:07:44.855Z,8.13
2019-03-31T01:10:28.907Z,8.90
2019-03-31T01:16:20.947Z,8.80
2019-03-31T01:22:26.073Z,8.90
2019-03-31T01:28:13.197Z,8.27
2019-03-31T01:34:06.569Z,9.00
2019-03-31T01:36:56.837Z,8.97
2019-03-31T01:39:39.231Z,8.90
2019-03-31T01:42:29.532Z,9.33
2019-03-31T01:45:11.971Z,8.93
2019-03-31T01:48:02.267Z,8.83
2019-03-31T01:50:45.131Z,9.07
2019-03-31T01:53:35.438Z,8.17
2019-03-31T01:59:26.219Z,8.83
2019-03-31T02:02:11.527Z,8.30
2019-03-31T02:05:01.907Z,8.20
2019-03-31T02:07:52.187Z,8.57
2019-03-31T02:10:42.543Z,8.87
2019-03-31T02:16:46.965Z,8.40
2019-03-31T02:19:37.225Z,8.60
2019-03-31T02:22:27.473Z,8.10
2019-03-31T02:28:31.038Z,8.63
2019-03-31T02:31:40.262Z,8.47
2019-03-31T02:34:30.648Z,7.97
2019-03-31T02:37:13.413Z,8.33
2019-03-31T02:40:03.762Z,8.67
2019-03-31T02:42:54.086Z,8.93
2019-03-31T02:46:03.176Z,8.67
2019-03-31T02:48:53.503Z,8.20
2019-03-31T02:51:43.824Z,8.77
2019-03-31T02:54:36.663Z,8.87
2019-03-31T02:57:27.047Z,8.63
2019-03-31T03:00:17.340Z,9.70
2019-03-31T03:06:21.784Z,8.80
2019-03-31T03:09:12.118Z,9.00
2019-03-31T03:12:13.549Z,8.13
2019-03-31T03:14:57.073Z,8.47
2019-03-31T03:17:47.320Z,8.77
2019-03-31T03:20:30.150Z,8.30
2019-03-31T03:23:20.413Z,8.57
2019-03-31T03:26:03.141Z,8.60
2019-03-31T03:28:53.415Z,9.10
2019-03-31T03:31:39.877Z,9.10
2019-03-31T03:34:30.191Z,9.33
2019-03-31T03:37:12.570Z,8.97
2019-03-31T03:40:02.847Z,9.03
2019-03-31T03:42:45.166Z,9.10
2019-03-31T03:45:35.502Z,8.80
2019-03-31T03:48:18.468Z,9.23
2019-03-31T03:51:08.745Z,8.80
2019-03-31T03:53:51.238Z,8.90
2019-03-31T03:56:41.462Z,9.63
2019-03-31T03:59:23.910Z,8.60
2019-03-31T04:02:14.177Z,8.90
2019-03-31T04:04:57.288Z,9.30
2019-03-31T04:07:47.543Z,8.53
2019-03-31T04:10:49.102Z,8.80
2019-03-31T04:13:38.912Z,9.17
2019-03-31T04:16:21.078Z,9.17
2019-03-31T04:19:04.193Z,8.87
2019-03-31T04:21:50.843Z,10.00
2019-03-31T04:24:34.203Z,8.40
2019-03-31T04:27:24.493Z,9.27
2019-03-31T04:30:14.841Z,9.17
2019-03-31T04:33:05.155Z,9.13
2019-03-31T04:35:55.451Z,8.97
2019-03-31T04:38:45.790Z,8.83
2019-03-31T04:42:07.019Z,8.87
2019-03-31T04:44:51.157Z,8.67
2019-03-31T04:47:41.432Z,9.20
2019-03-31T04:50:31.680Z,9.57
2019-03-31T04:53:22.006Z,9.03
2019-03-31T04:56:04.699Z,10.33
2019-03-31T04:58:54.973Z,9.57
2019-03-31T05:01:37.590Z,9.10
2019-03-31T05:04:27.832Z,9.87
2019-03-31T05:07:11.020Z,9.43
2019-03-31T05:10:01.284Z,9.43
2019-03-31T05:12:44.727Z,9.17
2019-03-31T05:15:34.971Z,9.00
2019-03-31T05:18:17.817Z,9.53
2019-03-31T05:21:08.059Z,9.00
2019-03-31T05:23:54.463Z,10.27
2019-03-31T05:26:44.760Z,9.20
2019-03-31T05:29:27.269Z,9.67
2019-03-31T05:32:17.549Z,9.43
2019-03-31T05:35:00.513Z,9.80
2019-03-31T05:37:51.586Z,9.30
2019-03-31T05:40:35.050Z,9.03
2019-03-31T05:43:25.379Z,9.63
2019-03-31T05:46:08.346Z,9.57
2019-03-31T05:48:58.654Z,9.53
2019-03-31T05:51:49.073Z,9.47
2019-03-31T05:54:39.415Z,9.37
2019-03-31T05:57:30.551Z,9.37
2019-03-31T06:04:10.772Z,9.33
2019-03-31T06:06:53.538Z,9.40
2019-03-31T06:09:43.888Z,9.43
2019-03-31T06:12:34.188Z,9.60
2019-03-31T06:15:24.456Z,9.33
2019-03-31T06:18:07.176Z,8.90
2019-03-31T06:20:57.504Z,9.40
2019-03-31T06:23:47.957Z,9.60
2019-03-31T06:29:32.315Z,9.13
2019-03-31T06:32:22.708Z,9.80
2019-03-31T06:35:13.001Z,9.57
2019-03-31T06:38:03.322Z,9.03
2019-03-31T06:43:50.654Z,9.43
2019-03-31T06:46:40.938Z,9.37
2019-03-31T06:49:23.872Z,9.30
2019-03-31T06:52:14.132Z,9.67
2019-03-31T06:54:57.102Z,8.70
2019-03-31T06:57:47.390Z,10.00
2019-03-31T07:00:38.222Z,9.45
2019-03-31T07:03:21.874Z,9.20
2019-03-31T07:06:12.703Z,9.85
2019-03-31T07:08:55.996Z,9.18
2019-03-31T07:12:05.724Z,10.43
2019-03-31T07:14:49.294Z,9.43
2019-03-31T07:17:39.588Z,9.70
2019-03-31T07:20:22.271Z,9.63
2019-03-31T07:26:13.902Z,10.70
2019-03-31T07:29:04.186Z,9.83
2019-03-31T07:31:46.536Z,9.50
2019-03-31T07:34:36.822Z,10.40
2019-03-31T07:37:19.416Z,10.50
2019-03-31T07:40:41.860Z,10.80
2019-03-31T07:43:24.687Z,10.10
2019-03-31T07:46:14.936Z,10.57
2019-03-31T07:52:20.620Z,10.47
2019-03-31T07:58:23.904Z,10.27
2019-03-31T08:01:14.293Z,10.37
2019-03-31T08:04:04.599Z,9.63
2019-03-31T08:06:54.905Z,9.87
2019-03-31T08:09:45.244Z,10.03
2019-03-31T08:12:35.568Z,10.83
2019-03-31T08:15:25.910Z,10.67
2019-03-31T08:18:16.226Z,10.43
2019-03-31T08:21:06.472Z,10.97
2019-03-31T08:23:49.021Z,10.47
2019-03-31T08:26:39.438Z,11.23
2019-03-31T08:29:29.775Z,11.37
2019-03-31T08:32:20.133Z,10.23
2019-03-31T08:38:45.523Z,10.77
2019-03-31T08:41:35.791Z,10.67
2019-03-31T08:44:18.615Z,12.07
2019-03-31T08:50:12.690Z,11.73
2019-03-31T08:53:02.970Z,12.03
2019-03-31T08:55:45.619Z,12.20
2019-03-31T08:58:35.917Z,12.53
2019-03-31T09:01:18.719Z,12.07
2019-03-31T09:04:08.996Z,12.27
2019-03-31T09:06:55.553Z,12.70
2019-03-31T09:09:45.842Z,12.20
2019-03-31T09:12:28.395Z,13.10
2019-03-31T09:15:18.680Z,12.87
2019-03-31T09:18:01.215Z,12.40
2019-03-31T09:20:51.543Z,12.20
2019-03-31T09:23:34.624Z,13.10
2019-03-31T09:29:28.284Z,13.80
2019-03-31T09:32:18.581Z,13.83
2019-03-31T09:35:01.324Z,13.03
2019-03-31T09:37:51.621Z,14.53
2019-03-31T09:40:34.337Z,14.20
2019-03-31T09:43:24.635Z,14.43
2019-03-31T09:46:07.941Z,14.17
2019-03-31T09:48:58.250Z,14.23
2019-03-31T09:51:41.037Z,14.30
2019-03-31T09:54:31.314Z,13.60
2019-03-31T10:00:10.046Z,14.40
2019-03-31T10:03:01.200Z,14.50
2019-03-31T10:05:47.676Z,14.90
2019-03-31T10:08:36.696Z,13.87
2019-03-31T10:11:27.092Z,15.07
2019-03-31T10:14:17.397Z,13.93
2019-03-31T10:16:48.866Z,13.83
2019-03-31T10:19:39.144Z,13.73
2019-03-31T10:22:21.933Z,15.00
2019-03-31T10:28:25.522Z,15.07
2019-03-31T10:33:57.216Z,14.87
2019-03-31T10:36:47.514Z,14.83
2019-03-31T10:39:30.364Z,13.70
2019-03-31T10:45:22.826Z,15.83
2019-03-31T10:48:20.266Z,15.77
2019-03-31T10:50:57.791Z,14.53
2019-03-31T10:53:48.536Z,14.23
2019-03-31T10:56:31.636Z,14.93
2019-03-31T10:59:21.912Z,15.13
2019-03-31T11:02:04.361Z,14.00
2019-03-31T11:04:54.617Z,14.53
2019-03-31T11:07:36.882Z,14.93
2019-03-31T11:10:27.149Z,14.50
2019-03-31T11:13:10.356Z,14.37
2019-03-31T11:16:00.628Z,14.93
2019-03-31T11:18:43.888Z,14.57
2019-03-31T11:22:11.819Z,15.73
2019-03-31T11:24:54.964Z,14.77
2019-03-31T11:27:45.314Z,15.30
2019-03-31T11:30:28.242Z,15.17
2019-03-31T11:33:18.482Z,14.47
2019-03-31T11:36:01.318Z,15.03
2019-03-31T11:38:51.590Z,15.70
2019-03-31T11:41:34.022Z,14.87
2019-03-31T11:44:27.495Z,14.63
2019-03-31T11:47:09.067Z,14.10
2019-03-31T11:49:59.324Z,14.27
2019-03-31T11:52:41.966Z,13.87
2019-03-31T11:58:33.779Z,12.80
2019-03-31T12:01:23.180Z,14.33
2019-03-31T12:04:04.980Z,12.60
2019-03-31T12:06:47.904Z,12.20
2019-03-31T12:09:38.402Z,12.17
2019-03-31T12:12:28.800Z,12.83
2019-03-31T12:18:14.240Z,11.30
2019-03-31T12:21:04.508Z,12.17
2019-03-31T12:23:47.554Z,9.30
2019-03-31T12:26:37.890Z,11.90
2019-03-31T12:29:20.800Z,10.27
2019-03-31T12:32:11.274Z,11.53
2019-03-31T12:34:53.624Z,11.57
2019-03-31T12:38:02.672Z,11.73
2019-03-31T12:40:45.747Z,11.80
2019-03-31T12:43:36.017Z,12.40
2019-03-31T12:46:18.460Z,11.33
2019-03-31T12:49:08.764Z,11.63
2019-03-31T12:51:51.392Z,11.53
2019-03-31T12:54:41.698Z,12.00
2019-03-31T12:57:25.049Z,12.43
2019-03-31T13:00:15.343Z,12.37
2019-03-31T13:02:59.020Z,11.90
2019-03-31T13:05:49.254Z,11.90
2019-03-31T13:08:31.932Z,12.73
2019-03-31T13:11:22.802Z,11.75
2019-03-31T13:14:06.309Z,12.28
2019-03-31T13:16:57.147Z,12.43
2019-03-31T13:19:40.803Z,11.93
2019-03-31T13:22:31.636Z,13.13
2019-03-31T13:25:16.143Z,11.30
2019-03-31T13:28:07.007Z,12.00
2019-03-31T13:30:50.621Z,12.10
2019-03-31T13:33:41.561Z,11.78
2019-03-31T13:36:25.073Z,10.25
2019-03-31T13:39:16.161Z,11.38
2019-03-31T13:42:07.083Z,11.22
2019-03-31T13:44:58.044Z,11.45
2019-03-31T13:47:49.003Z,12.58
2019-03-31T13:50:39.939Z,11.80
2019-03-31T13:53:30.890Z,10.30
2019-03-31T13:56:21.752Z,11.22
2019-03-31T13:59:08.901Z,11.00
2019-03-31T14:02:00.221Z,11.50
2019-03-31T14:04:51.491Z,11.68
2019-03-31T14:07:17.526Z,9.53
2019-03-31T14:10:08.658Z,11.30
2019-03-31T14:12:59.575Z,11.08
2019-03-31T14:15:50.508Z,9.53
2019-03-31T14:18:41.469Z,10.65
2019-03-31T14:21:32.301Z,9.98
2019-03-31T14:24:15.414Z,9.18
2019-03-31T14:26:47.971Z,9.90
2019-03-31T14:29:32.391Z,9.35
2019-03-31T14:32:23.295Z,9.00
2019-03-31T14:35:06.784Z,8.80
2019-03-31T14:37:59.482Z,8.73
2019-03-31T14:40:50.412Z,8.60
2019-03-31T14:43:41.291Z,8.45
2019-03-31T14:46:32.208Z,8.03
2019-03-31T14:49:25.764Z,9.30
2019-03-31T14:52:08.190Z,9.43
2019-03-31T14:54:59.041Z,9.60
2019-03-31T14:57:43.141Z,10.05
2019-03-31T15:00:34.079Z,8.95
2019-03-31T15:03:25.002Z,9.28
2019-03-31T15:06:15.895Z,9.78
2019-03-31T15:09:08.820Z,8.35
2019-03-31T15:11:59.951Z,8.35
2019-03-31T15:14:43.985Z,9.03
2019-03-31T15:40:29.847Z,8.05
2019-03-31T15:46:27.747Z,8.20
2019-03-31T15:52:08.798Z,8.00
2019-03-31T15:54:59.358Z,7.70
2019-03-31T15:57:43.031Z,7.67
2019-03-31T16:00:33.915Z,8.45
2019-03-31T16:03:17.600Z,7.42
2019-03-31T16:06:08.507Z,8.00
2019-03-31T16:08:51.541Z,7.55
2019-03-31T16:14:42.969Z,6.65
2019-03-31T16:17:33.281Z,7.40
2019-03-31T16:20:15.417Z,7.70
2019-03-31T16:23:05.725Z,7.78
2019-03-31T16:29:01.777Z,7.55
2019-03-31T16:31:43.871Z,6.93
2019-03-31T16:37:15.145Z,7.12
2019-03-31T16:40:05.057Z,6.83
2019-03-31T16:42:47.106Z,7.67
2019-03-31T16:48:25.060Z,7.40
2019-03-31T16:51:14.911Z,7.43
2019-03-31T16:57:07.969Z,7.13
2019-03-31T16:59:50.239Z,6.60
2019-03-31T17:02:40.068Z,7.20
2019-03-31T17:05:22.282Z,7.00
2019-03-31T17:08:01.745Z,5.97
2019-03-31T17:10:51.481Z,6.53
2019-03-31T17:13:33.730Z,6.87
2019-03-31T17:16:23.447Z,6.60
2019-03-31T17:19:05.630Z,6.47
2019-03-31T17:21:55.429Z,6.50
2019-03-31T17:24:37.378Z,7.03
2019-03-31T17:27:27.267Z,6.57
2019-03-31T17:30:09.636Z,6.77
2019-03-31T17:32:59.348Z,6.40
2019-03-31T17:35:42.343Z,6.43
2019-03-31T17:38:32.095Z,6.10
2019-03-31T17:41:14.410Z,6.50
2019-03-31T17:44:04.142Z,6.27
2019-03-31T17:46:46.694Z,6.03
2019-03-31T17:49:36.428Z,6.57
2019-03-31T17:52:19.262Z,6.50
2019-03-31T17:55:08.996Z,6.83
2019-03-31T17:57:51.736Z,6.20
2019-03-31T18:00:41.569Z,6.57
2019-03-31T18:03:27.872Z,7.00
2019-03-31T18:06:17.702Z,6.73
2019-03-31T18:09:01.340Z,6.53
2019-03-31T18:11:51.084Z,6.93
2019-03-31T18:14:33.100Z,7.87
2019-03-31T18:17:22.892Z,7.10
2019-03-31T18:20:08.832Z,6.90
2019-03-31T18:22:58.663Z,7.00
2019-03-31T18:25:48.378Z,6.83
2019-03-31T18:28:30.658Z,7.10
2019-03-31T18:31:20.372Z,7.53
2019-03-31T18:34:02.806Z,6.80
2019-03-31T18:36:52.498Z,7.10
2019-03-31T18:39:34.627Z,7.03
2019-03-31T18:42:24.382Z,6.93
2019-03-31T18:45:33.292Z,6.37
2019-03-31T18:48:23.054Z,6.70
2019-03-31T18:51:12.748Z,6.63
2019-03-31T18:57:24.982Z,6.57
2019-03-31T19:00:33.648Z,5.87
2019-03-31T19:03:39.226Z,6.47
2019-03-31T19:06:33.747Z,5.83
2019-03-31T19:09:42.380Z,6.50
2019-03-31T19:12:52.013Z,6.40
2019-03-31T19:16:00.642Z,5.83
2019-03-31T19:19:09.284Z,6.40
2019-03-31T19:22:08.455Z,6.77
2019-03-31T19:25:17.065Z,6.77
2019-03-31T19:31:08.951Z,6.33
2019-03-31T19:34:10.180Z,6.60
2019-03-31T19:37:18.769Z,6.43
2019-03-31T19:40:27.554Z,5.80
2019-03-31T19:43:36.193Z,6.90
2019-03-31T19:46:44.960Z,6.97
2019-03-31T19:50:05.359Z,6.07
2019-03-31T19:52:58.695Z,6.33
2019-03-31T19:56:08.099Z,7.33
2019-03-31T19:59:10.747Z,6.97
2019-03-31T20:02:19.293Z,7.07
2019-03-31T20:08:32.759Z,7.13
2019-03-31T20:11:34.481Z,8.17
2019-03-31T20:14:29.845Z,7.77
2019-03-31T20:17:34.869Z,7.73
2019-03-31T20:20:43.554Z,8.33
2019-03-31T20:23:52.265Z,8.07
2019-03-31T20:27:00.859Z,7.93
2019-03-31T20:29:57.949Z,8.30
2019-03-31T20:33:01.327Z,8.00
2019-03-31T20:36:05.243Z,8.63
2019-03-31T20:39:14.202Z,8.90
2019-03-31T20:42:03.663Z,8.70
2019-03-31T20:44:45.695Z,9.17
2019-03-31T20:47:35.443Z,10.17
2019-03-31T20:50:19.131Z,9.20
2019-03-31T20:53:08.854Z,9.20
2019-03-31T20:55:51.461Z,8.87
2019-03-31T20:58:41.187Z,8.93
2019-03-31T21:01:23.205Z,9.60
2019-03-31T21:04:12.894Z,9.40
2019-03-31T21:06:55.047Z,10.30
2019-03-31T21:09:45.508Z,9.40
2019-03-31T21:12:29.245Z,10.17
2019-03-31T21:15:18.975Z,9.80
2019-03-31T21:18:01.643Z,10.10
2019-03-31T21:20:51.345Z,10.00
2019-03-31T21:23:34.173Z,10.23
2019-03-31T21:26:23.907Z,10.17
2019-03-31T21:29:06.235Z,10.17
2019-03-31T21:31:55.982Z,10.40
2019-03-31T21:34:45.719Z,10.23
2019-03-31T21:37:27.627Z,11.17
2019-03-31T21:40:17.499Z,10.63
2019-03-31T21:43:18.236Z,10.53
2019-03-31T21:46:00.803Z,9.87
2019-03-31T21:48:50.564Z,9.77
2019-03-31T21:51:32.673Z,9.17
2019-03-31T21:54:22.487Z,9.60
2019-03-31T21:57:12.299Z,9.17
2019-03-31T22:00:02.095Z,10.67
2019-03-31T22:02:52.026Z,10.27
2019-03-31T22:05:41.773Z,10.30
2019-03-31T22:08:31.572Z,9.80
2019-03-31T22:11:21.268Z,10.70
2019-03-31T22:17:26.127Z,10.47
2019-03-31T22:20:08.658Z,9.43
2019-03-31T22:23:10.076Z,9.70
2019-03-31T22:25:52.273Z,10.43
2019-03-31T22:28:42.319Z,10.73
2019-03-31T22:31:24.432Z,9.90
2019-03-31T22:34:14.236Z,10.30
2019-03-31T22:36:45.023Z,10.33
2019-03-31T22:42:23.336Z,11.03
2019-03-31T22:45:06.372Z,10.27
2019-03-31T22:47:56.268Z,10.37
2019-03-31T22:50:46.010Z,10.93
2019-03-31T22:53:35.912Z,10.70
2019-03-31T22:56:25.688Z,10.03
2019-03-31T22:59:15.466Z,10.87
2019-03-31T23:04:58.553Z,10.93
2019-03-31T23:07:48.240Z,10.50
2019-03-31T23:10:37.948Z,9.93
2019-03-31T23:13:27.658Z,10.77
2019-03-31T23:16:13.856Z,9.83
2019-03-31T23:19:03.562Z,11.00
2019-03-31T23:21:50.429Z,11.03
2019-03-31T23:24:40.100Z,10.50
2019-03-31T23:27:22.245Z,10.83
2019-03-31T23:30:12.159Z,10.47
2019-03-31T23:32:56.456Z,10.63
2019-03-31T23:35:47.194Z,10.77
2019-03-31T23:38:29.515Z,11.43
2019-03-31T23:41:19.237Z,10.10
2019-03-31T23:44:02.066Z,10.80
2019-03-31T23:46:51.797Z,10.43
2019-03-31T23:49:33.981Z,10.97
2019-03-31T23:55:18.187Z,11.20
2019-03-31T23:58:07.993Z,10.97
